Time;durP1;ratioP1;P1;durP2;ratioP2;P2;SDS_P1;SDS_P2;PMS_P1;PMS_P2;Temp;Humidity;BMP_temperature;BMP_pressure;BME280_temperature;BME280_humidity;BME280_pressure;Samples;Min_cycle;Max_cycle;Signal;HPM_P1;HPM_P2
2022/12/30 00:00:07;;;;;;;17.52;11.48;;;;;;;;;;10309958;28;20079;-59
2022/12/30 00:05:06;;;;;;;14.38;11.48;;;;;;;;;;10319327;28;20087;-59
2022/12/30 00:10:04;;;;;;;18.10;10.60;;;;;;;;;;10318258;28;20047;-59
2022/12/30 00:36:10;;;;;;;13.07;10.90;;;;;;;;;;10317841;28;20071;-60
2022/12/30 00:46:31;;;;;;;12.88;11.13;;;;;;;;;;10302306;28;20087;-59
2022/12/30 00:56:44;;;;;;;;;;;;;;;;;;10316148;28;20091;-60
2022/12/30 01:01:44;;;;;;;16.80;12.68;;;;;;;;;;10317127;28;20522;-60
2022/12/30 01:06:42;;;;;;;15.68;13.43;;;;;;;;;;10316432;28;20450;-59
2022/12/30 01:11:41;;;;;;;15.98;12.35;;;;;;;;;;10316327;28;20045;-60
2022/12/30 01:16:39;;;;;;;14.00;12.50;;;;;;;;;;10316448;28;20530;-59
2022/12/30 01:21:38;;;;;;;17.65;13.05;;;;;;;;;;10316810;28;20064;-59
2022/12/30 01:26:37;;;;;;;18.08;14.38;;;;;;;;;;10315990;28;20052;-60
2022/12/30 01:31:35;;;;;;;14.15;12.13;;;;;;;;;;10315522;28;20048;-60
2022/12/30 01:36:33;;;;;;;15.70;11.73;;;;;;;;;;10315634;28;20064;-60
2022/12/30 01:41:33;;;;;;;13.15;11.38;;;;;;;;;;10296124;28;20079;-59
2022/12/30 01:46:31;;;;;;;14.27;11.23;;;;;;;;;;10315544;28;20040;-60
2022/12/30 01:51:30;;;;;;;14.13;11.15;;;;;;;;;;10315790;28;20496;-59
2022/12/30 01:56:30;;;;;;;13.57;11.45;;;;;;;;;;10315624;28;20079;-60
2022/12/30 02:01:30;;;;;;;15.30;12.45;;;;;;;;;;10314638;28;20076;-61
2022/12/30 02:06:32;;;;;;;12.50;11.20;;;;;;;;;;10304308;28;20055;-59
2022/12/30 02:11:30;;;;;;;13.73;10.95;;;;;;;;;;10323686;28;20079;-60
2022/12/30 02:16:37;;;;;;;14.10;12.07;;;;;;;;;;10323340;28;20517;-61
2022/12/30 02:21:40;;;;;;;14.57;12.05;;;;;;;;;;10323623;28;20075;-59
2022/12/30 02:27:03;;;;;;;14.25;11.73;;;;;;;;;;10322495;28;20100;-59
2022/12/30 02:32:06;;;;;;;15.07;10.73;;;;;;;;;;10322700;28;20514;-59
2022/12/30 02:37:07;;;;;;;12.63;11.00;;;;;;;;;;10322988;28;20068;-60
2022/12/30 02:47:27;;;;;;;13.48;9.38;;;;;;;;;;10321242;28;20087;-59
2022/12/30 02:52:25;;;;;;;11.25;9.70;;;;;;;;;;10322169;28;20079;-60
2022/12/30 02:57:25;;;;;;;11.90;10.15;;;;;;;;;;10319640;28;20071;-59
2022/12/30 03:07:49;;;;;;;12.68;11.20;;;;;;;;;;10318270;28;20071;-60
2022/12/30 03:12:52;;;;;;;14.82;12.18;;;;;;;;;;10320014;28;20052;-59
2022/12/30 03:17:52;;;;;;;11.68;9.07;;;;;;;;;;10307811;28;20048;-59
2022/12/30 03:28:09;;;;;;;13.13;11.43;;;;;;;;;;10320248;28;20083;-59
2022/12/30 03:33:08;;;;;;;14.23;10.15;;;;;;;;;;10319756;28;20076;-57
2022/12/30 03:38:07;;;;;;;12.05;9.65;;;;;;;;;;10321044;28;20049;-59
2022/12/30 03:43:06;;;;;;;9.82;8.82;;;;;;;;;;10320031;28;20059;-60
2022/12/30 03:48:04;;;;;;;13.90;10.35;;;;;;;;;;10318966;28;20049;-60
2022/12/30 03:53:04;;;;;;;11.52;9.52;;;;;;;;;;10319497;28;20107;-59
2022/12/30 03:58:02;;;;;;;11.77;9.85;;;;;;;;;;10319904;28;20040;-60
2022/12/30 04:03:00;;;;;;;12.75;11.27;;;;;;;;;;10319897;28;20489;-60
2022/12/30 04:07:59;;;;;;;14.98;10.70;;;;;;;;;;10318770;28;20069;-60
2022/12/30 04:12:58;;;;;;;11.40;10.20;;;;;;;;;;10318060;28;20064;-60
2022/12/30 04:17:57;;;;;;;11.60;10.38;;;;;;;;;;10318808;28;20497;-59
2022/12/30 04:22:56;;;;;;;13.07;9.85;;;;;;;;;;10319149;28;20532;-59
2022/12/30 04:27:55;;;;;;;11.70;10.27;;;;;;;;;;10318417;28;20466;-59
2022/12/30 04:32:54;;;;;;;10.43;8.65;;;;;;;;;;10317627;28;20557;-59
2022/12/30 04:37:52;;;;;;;19.25;16.05;;;;;;;;;;10318420;28;20418;-60
2022/12/30 04:42:50;;;;;;;23.42;18.80;;;;;;;;;;10317521;28;20548;-59
2022/12/30 04:47:49;;;;;;;35.05;27.25;;;;;;;;;;10317463;28;20498;-60
2022/12/30 04:52:48;;;;;;;12.15;10.93;;;;;;;;;;10318025;28;20064;-60
2022/12/30 04:57:46;;;;;;;13.18;10.07;;;;;;;;;;10317131;28;20579;-60
2022/12/30 05:02:44;;;;;;;14.13;11.52;;;;;;;;;;10317518;28;20068;-60
2022/12/30 05:07:43;;;;;;;19.60;12.65;;;;;;;;;;10317471;28;20064;-60
2022/12/30 05:12:43;;;;;;;36.78;22.75;;;;;;;;;;10316158;28;20072;-60
2022/12/30 05:17:41;;;;;;;29.98;17.27;;;;;;;;;;10316992;28;20068;-60
2022/12/30 05:22:39;;;;;;;14.88;11.13;;;;;;;;;;10288958;28;20087;-60
2022/12/30 05:27:37;;;;;;;11.20;9.70;;;;;;;;;;10316642;28;20445;-59
2022/12/30 05:32:37;;;;;;;11.38;9.30;;;;;;;;;;10315637;28;20510;-59
2022/12/30 05:37:35;;;;;;;10.73;8.70;;;;;;;;;;10315533;28;20079;-59
2022/12/30 05:42:33;;;;;;;15.45;10.48;;;;;;;;;;10291095;28;20048;-59
2022/12/30 05:47:31;;;;;;;12.98;9.50;;;;;;;;;;10315194;28;20064;-59
2022/12/30 05:52:31;;;;;;;11.82;8.73;;;;;;;;;;10316057;28;20048;-58
2022/12/30 05:57:29;;;;;;;10.65;9.48;;;;;;;;;;10313758;28;20087;-58
2022/12/30 06:02:27;;;;;;;11.43;9.85;;;;;;;;;;10311894;28;20064;-59
2022/12/30 06:07:27;;;;;;;12.80;9.15;;;;;;;;;;10311736;28;20075;-59
2022/12/30 06:12:27;;;;;;;12.50;9.45;;;;;;;;;;10311097;28;20087;-58
2022/12/30 06:17:25;;;;;;;11.50;10.30;;;;;;;;;;10315222;28;20040;-59
2022/12/30 06:22:23;;;;;;;11.77;9.90;;;;;;;;;;10306508;28;20079;-59
2022/12/30 06:27:22;;;;;;;11.95;9.63;;;;;;;;;;10314561;28;20064;-59
2022/12/30 06:32:21;;;;;;;10.88;9.65;;;;;;;;;;10310094;28;20126;-59
2022/12/30 06:37:19;;;;;;;10.98;9.35;;;;;;;;;;10313272;28;20569;-59
2022/12/30 06:42:18;;;;;;;12.30;9.80;;;;;;;;;;10315206;28;20072;-58
2022/12/30 06:47:16;;;;;;;15.60;12.35;;;;;;;;;;10314476;28;20037;-59
2022/12/30 06:52:15;;;;;;;13.77;10.23;;;;;;;;;;10315206;28;20387;-59
2022/12/30 06:57:14;;;;;;;11.38;9.45;;;;;;;;;;10321650;28;20087;-59
2022/12/30 07:02:16;;;;;;;11.98;10.40;;;;;;;;;;10299244;28;20072;-59
2022/12/30 07:07:16;;;;;;;14.98;9.82;;;;;;;;;;10319347;28;20059;-60
2022/12/30 07:12:14;;;;;;;11.40;10.15;;;;;;;;;;10316178;28;20060;-58
2022/12/30 07:17:12;;;;;;;12.02;10.82;;;;;;;;;;10319286;28;20064;-60
2022/12/30 07:22:11;;;;;;;15.75;11.35;;;;;;;;;;10315713;28;20577;-59
2022/12/30 07:27:10;;;;;;;16.90;11.95;;;;;;;;;;10320040;28;20079;-59
2022/12/30 07:32:09;;;;;;;11.25;9.57;;;;;;;;;;10320392;28;20075;-59
2022/12/30 07:37:08;;;;;;;45.08;35.30;;;;;;;;;;10319922;28;20041;-58
2022/12/30 08:00:10;;;;;;;60.65;45.30;;;;;;;;;;10310681;28;20604;-60
2022/12/30 08:05:13;;;;;;;87.82;68.43;;;;;;;;;;10318738;28;20080;-60
2022/12/30 08:10:11;;;;;;;21.23;16.33;;;;;;;;;;10318984;28;20666;-59
2022/12/30 08:15:10;;;;;;;18.80;14.30;;;;;;;;;;10318696;28;20040;-60
2022/12/30 08:20:10;;;;;;;19.08;15.02;;;;;;;;;;10317919;28;20075;-61
2022/12/30 08:25:09;;;;;;;13.57;12.18;;;;;;;;;;10317528;28;20067;-60
2022/12/30 08:30:08;;;;;;;33.67;27.80;;;;;;;;;;10317826;28;20044;-59
2022/12/30 08:35:07;;;;;;;66.30;49.13;;;;;;;;;;10307367;28;20064;-59
2022/12/30 08:40:06;;;;;;;53.08;40.13;;;;;;;;;;10306652;28;20048;-59
2022/12/30 08:45:06;;;;;;;27.67;21.30;;;;;;;;;;10293945;28;20091;-59
2022/12/30 08:50:05;;;;;;;22.75;18.88;;;;;;;;;;10313259;28;20060;-59
2022/12/30 08:55:03;;;;;;;18.92;13.85;;;;;;;;;;10300439;28;20045;-59
2022/12/30 09:00:02;;;;;;;20.95;15.52;;;;;;;;;;10316863;28;20064;-60
2022/12/30 09:05:01;;;;;;;24.63;17.30;;;;;;;;;;10316091;28;20040;-58
2022/12/30 09:10:00;;;;;;;17.38;14.63;;;;;;;;;;10316072;28;20071;-59
2022/12/30 09:14:58;;;;;;;17.67;14.93;;;;;;;;;;10315927;28;20442;-60
2022/12/30 09:19:56;;;;;;;37.85;31.45;;;;;;;;;;10315463;28;20500;-59
2022/12/30 09:24:56;;;;;;;30.70;25.48;;;;;;;;;;10316670;28;20661;-59
2022/12/30 09:29:54;;;;;;;37.05;26.88;;;;;;;;;;10316290;28;20489;-60
2022/12/30 09:34:52;;;;;;;37.75;27.73;;;;;;;;;;10314281;28;20441;-59
2022/12/30 09:39:50;;;;;;;44.60;33.53;;;;;;;;;;10316337;28;20426;-60
2022/12/30 09:45:00;;;;;;;29.58;24.30;;;;;;;;;;10315115;28;20076;-59
2022/12/30 09:50:00;;;;;;;32.28;21.77;;;;;;;;;;10621927;22;20084;-62
2022/12/30 09:55:01;;;;;;;34.85;25.67;;;;;;;;;;10268431;28;20068;-63
2022/12/30 10:00:02;;;;;;;27.33;21.35;;;;;;;;;;10260599;28;20067;-62
2022/12/30 10:05:11;;;;;;;35.35;29.85;;;;;;;;;;10270822;28;20087;-62
2022/12/30 10:10:14;;;;;;;33.83;26.23;;;;;;;;;;10264356;28;20079;-63
2022/12/30 10:15:18;;;;;;;35.30;24.48;;;;;;;;;;10270654;28;20052;-63
2022/12/30 10:20:21;;;;;;;40.55;32.60;;;;;;;;;;10267763;28;20072;-63
2022/12/30 10:25:23;;;;;;;33.65;25.38;;;;;;;;;;10270606;28;20064;-62
2022/12/30 10:30:23;;;;;;;26.13;19.02;;;;;;;;;;10273924;28;20037;-63
2022/12/30 10:35:24;;;;;;;20.23;16.95;;;;;;;;;;10279030;28;20072;-62
2022/12/30 10:40:24;;;;;;;27.25;23.02;;;;;;;;;;10271686;28;20501;-62
2022/12/30 10:45:51;;;;;;;36.97;25.83;;;;;;;;;;10261275;28;20073;-62
2022/12/30 10:50:50;;;;;;;26.58;21.33;;;;;;;;;;10269495;28;20433;-63
2022/12/30 10:55:49;;;;;;;23.50;19.58;;;;;;;;;;10274556;28;20041;-63
2022/12/30 11:00:48;;;;;;;22.70;17.17;;;;;;;;;;10279587;28;20075;-62
2022/12/30 11:05:46;;;;;;;21.23;18.10;;;;;;;;;;10276627;28;20080;-63
2022/12/30 11:10:57;;;;;;;24.92;20.52;;;;;;;;;;10273988;28;20052;-63
2022/12/30 11:15:57;;;;;;;26.55;19.52;;;;;;;;;;10275100;28;20075;-62
2022/12/30 11:20:56;;;;;;;45.05;33.15;;;;;;;;;;10270097;28;20040;-63
2022/12/30 11:25:54;;;;;;;49.63;37.45;;;;;;;;;;10274262;28;20073;-63
2022/12/30 11:31:03;;;;;;;26.95;18.35;;;;;;;;;;10257677;28;20045;-63
2022/12/30 11:36:13;;;;;;;31.33;22.88;;;;;;;;;;10274979;28;20045;-62
2022/12/30 11:41:22;;;;;;;28.83;22.67;;;;;;;;;;10262570;28;20065;-63
2022/12/30 11:46:23;;;;;;;24.65;19.20;;;;;;;;;;10266780;28;20064;-62
2022/12/30 11:51:23;;;;;;;28.80;20.77;;;;;;;;;;10268975;28;20080;-62
2022/12/30 11:56:22;;;;;;;26.73;19.02;;;;;;;;;;10262501;28;20493;-62
2022/12/30 12:01:20;;;;;;;28.70;21.20;;;;;;;;;;10270067;28;20075;-62
2022/12/30 12:06:20;;;;;;;22.83;17.52;;;;;;;;;;10271565;28;20072;-63
2022/12/30 12:11:19;;;;;;;22.90;19.42;;;;;;;;;;10271411;28;20060;-62
2022/12/30 12:16:32;;;;;;;23.70;20.30;;;;;;;;;;10276970;28;20068;-62
2022/12/30 12:21:36;;;;;;;22.23;15.95;;;;;;;;;;10272276;28;20103;-62
2022/12/30 12:26:37;;;;;;;22.27;19.45;;;;;;;;;;10258534;28;20045;-63
2022/12/30 12:31:41;;;;;;;23.05;18.15;;;;;;;;;;10273162;28;20072;-63
2022/12/30 12:36:50;;;;;;;27.02;20.00;;;;;;;;;;10275664;28;20547;-62
2022/12/30 12:42:01;;;;;;;30.85;25.10;;;;;;;;;;10276754;28;20091;-62
2022/12/30 12:47:05;;;;;;;25.20;20.58;;;;;;;;;;10276418;28;20088;-62
2022/12/30 12:52:10;;;;;;;17.73;15.40;;;;;;;;;;10272924;28;20064;-62
2022/12/30 12:57:15;;;;;;;19.40;17.30;;;;;;;;;;10275742;28;20052;-62
2022/12/30 13:02:22;;;;;;;68.65;42.05;;;;;;;;;;10273361;28;20080;-62
2022/12/30 13:07:46;;;;;;;23.20;18.23;;;;;;;;;;10274138;28;20048;-62
2022/12/30 13:13:07;;;;;;;22.75;18.83;;;;;;;;;;10274872;28;20045;-62
2022/12/30 13:18:10;;;;;;;29.08;21.42;;;;;;;;;;10275551;28;20049;-61
2022/12/30 13:23:12;;;;;;;22.40;19.83;;;;;;;;;;10271666;28;20082;-63
2022/12/30 13:28:16;;;;;;;21.88;18.60;;;;;;;;;;10274538;28;20084;-62
2022/12/30 13:33:19;;;;;;;17.27;15.43;;;;;;;;;;10274156;28;20516;-62
2022/12/30 13:38:24;;;;;;;22.33;15.10;;;;;;;;;;10274238;28;20064;-62
2022/12/30 13:43:27;;;;;;;35.65;25.38;;;;;;;;;;10273989;28;20485;-62
2022/12/30 13:48:28;;;;;;;39.90;30.27;;;;;;;;;;10262797;28;20088;-63
2022/12/30 13:53:37;;;;;;;36.40;28.80;;;;;;;;;;10273942;28;20088;-63
2022/12/30 13:58:37;;;;;;;51.28;36.65;;;;;;;;;;10270152;28;20487;-63
2022/12/30 14:03:36;;;;;;;35.47;29.98;;;;;;;;;;10271671;28;20478;-62
2022/12/30 14:08:50;;;;;;;52.63;43.15;;;;;;;;;;10269722;28;20065;-62
2022/12/30 14:14:03;;;;;;;52.03;43.67;;;;;;;;;;10266485;28;20080;-62
2022/12/30 14:19:02;;;;;;;32.58;29.10;;;;;;;;;;10253189;28;20088;-64
2022/12/30 14:24:02;;;;;;;42.80;33.42;;;;;;;;;;10258952;28;20065;-64
2022/12/30 14:29:02;;;;;;;48.47;40.25;;;;;;;;;;10258416;28;20072;-64
2022/12/30 14:34:04;;;;;;;24.38;19.80;;;;;;;;;;10267157;28;20081;-64
2022/12/30 14:39:05;;;;;;;23.08;17.27;;;;;;;;;;10263559;28;20506;-63
2022/12/30 14:44:05;;;;;;;25.05;20.27;;;;;;;;;;10267609;28;20032;-64
2022/12/30 14:49:04;;;;;;;38.83;28.95;;;;;;;;;;10264778;28;20113;-63
2022/12/30 14:54:05;;;;;;;32.45;23.85;;;;;;;;;;10263787;28;20466;-64
2022/12/30 14:59:06;;;;;;;38.15;29.63;;;;;;;;;;10261793;28;20079;-62
2022/12/30 15:04:11;;;;;;;29.63;25.58;;;;;;;;;;10270194;28;20088;-63
2022/12/30 15:09:15;;;;;;;27.90;23.67;;;;;;;;;;10260662;28;20080;-64
2022/12/30 15:14:15;;;;;;;28.50;22.20;;;;;;;;;;10267963;28;20304;-64
2022/12/30 15:19:21;;;;;;;24.55;21.92;;;;;;;;;;10266209;28;20060;-64
2022/12/30 15:24:20;;;;;;;366.20;55.25;;;;;;;;;;10275820;28;20165;-64
2022/12/30 15:29:20;;;;;;;58.63;28.00;;;;;;;;;;10273382;28;20072;-64
2022/12/30 15:34:19;;;;;;;21.65;19.27;;;;;;;;;;10272821;28;20465;-64
2022/12/30 15:39:19;;;;;;;29.02;22.30;;;;;;;;;;10267754;28;20029;-65
2022/12/30 15:44:20;;;;;;;32.38;26.63;;;;;;;;;;10273288;28;20068;-63
2022/12/30 15:49:24;;;;;;;31.45;24.73;;;;;;;;;;10259416;28;20092;-65
2022/12/30 15:54:26;;;;;;;45.70;30.05;;;;;;;;;;10260270;28;20072;-64
2022/12/30 15:59:29;;;;;;;31.27;23.63;;;;;;;;;;10269686;28;20124;-64
2022/12/30 16:04:28;;;;;;;35.40;25.92;;;;;;;;;;10260696;28;20107;-64
2022/12/30 16:09:31;;;;;;;36.83;26.65;;;;;;;;;;10264626;28;20119;-64
2022/12/30 16:14:35;;;;;;;39.33;28.02;;;;;;;;;;10268401;28;20083;-64
2022/12/30 16:19:42;;;;;;;24.65;21.42;;;;;;;;;;10269620;28;20075;-65
2022/12/30 16:24:40;;;;;;;25.17;20.58;;;;;;;;;;10273372;28;20088;-64
2022/12/30 16:29:41;;;;;;;27.05;21.83;;;;;;;;;;10255721;28;20069;-62
2022/12/30 16:34:40;;;;;;;22.33;19.85;;;;;;;;;;10255796;28;20120;-62
2022/12/30 16:39:38;;;;;;;29.33;24.60;;;;;;;;;;10265305;28;20424;-62
2022/12/30 16:44:36;;;;;;;25.77;20.08;;;;;;;;;;10261834;28;20439;-63
2022/12/30 16:49:36;;;;;;;39.17;24.25;;;;;;;;;;10267466;28;20512;-63
2022/12/30 16:54:34;;;;;;;33.88;23.92;;;;;;;;;;10267720;28;20538;-63
2022/12/30 16:59:32;;;;;;;25.13;18.25;;;;;;;;;;10268546;28;20071;-63
2022/12/30 17:04:30;;;;;;;25.45;21.33;;;;;;;;;;10271592;28;20061;-63
2022/12/30 17:14:46;;;;;;;16.95;15.10;;;;;;;;;;10267634;28;20171;-63
2022/12/30 17:19:45;;;;;;;14.73;13.13;;;;;;;;;;10257305;28;20077;-62
2022/12/30 17:24:45;;;;;;;16.38;14.13;;;;;;;;;;10265877;28;20071;-63
2022/12/30 17:29:43;;;;;;;13.43;10.23;;;;;;;;;;10265967;28;20096;-62
2022/12/30 17:34:41;;;;;;;11.80;10.18;;;;;;;;;;10261996;28;20085;-62
2022/12/30 17:39:39;;;;;;;15.70;13.73;;;;;;;;;;10262670;28;20071;-63
2022/12/30 17:44:39;;;;;;;12.32;10.50;;;;;;;;;;10255693;28;20095;-62
2022/12/30 17:49:37;;;;;;;12.43;10.15;;;;;;;;;;10260499;28;20164;-62
2022/12/30 17:54:35;;;;;;;18.00;13.57;;;;;;;;;;10264546;28;20081;-61
2022/12/30 17:59:33;;;;;;;14.82;11.55;;;;;;;;;;10257854;28;20367;-62
2022/12/30 18:04:33;;;;;;;13.82;11.60;;;;;;;;;;10267864;28;20065;-61
2022/12/30 18:09:33;;;;;;;18.00;12.68;;;;;;;;;;10266718;28;20108;-62
2022/12/30 18:14:32;;;;;;;22.67;16.27;;;;;;;;;;10266323;28;20083;-62
2022/12/30 18:19:30;;;;;;;32.92;21.27;;;;;;;;;;10265169;28;20087;-61
2022/12/30 18:24:29;;;;;;;44.58;28.00;;;;;;;;;;10258512;28;20064;-61
2022/12/30 18:29:28;;;;;;;25.00;18.05;;;;;;;;;;10263828;28;20072;-61
2022/12/30 18:34:26;;;;;;;22.33;15.27;;;;;;;;;;10261037;28;20068;-61
2022/12/30 18:39:24;;;;;;;20.05;14.80;;;;;;;;;;10253679;28;20073;-60
2022/12/30 18:44:24;;;;;;;20.58;13.30;;;;;;;;;;10264424;28;20484;-60
2022/12/30 18:49:22;;;;;;;13.75;10.15;;;;;;;;;;10263477;28;20175;-59
2022/12/30 18:54:21;;;;;;;13.45;10.63;;;;;;;;;;10272563;28;20076;-61
2022/12/30 18:59:20;;;;;;;12.38;9.50;;;;;;;;;;10275742;28;20159;-60
2022/12/30 19:04:19;;;;;;;19.45;12.90;;;;;;;;;;10276409;28;20064;-61
2022/12/30 19:09:19;;;;;;;24.95;16.20;;;;;;;;;;10272900;28;20089;-60
2022/12/30 19:14:18;;;;;;;22.42;17.67;;;;;;;;;;10272096;28;20075;-62
2022/12/30 19:19:16;;;;;;;13.48;11.05;;;;;;;;;;10268593;28;20477;-60
2022/12/30 19:24:17;;;;;;;12.40;10.18;;;;;;;;;;10270811;28;20480;-60
2022/12/30 19:29:15;;;;;;;10.95;9.50;;;;;;;;;;10273114;28;20493;-61
2022/12/30 19:34:14;;;;;;;14.77;11.77;;;;;;;;;;10270031;28;20068;-61
2022/12/30 19:39:14;;;;;;;16.85;12.18;;;;;;;;;;10270929;28;20067;-61
2022/12/30 19:44:14;;;;;;;20.92;12.15;;;;;;;;;;10282427;28;20064;-61
2022/12/30 19:49:14;;;;;;;21.45;14.05;;;;;;;;;;10260798;28;20084;-62
2022/12/30 19:54:12;;;;;;;26.77;15.50;;;;;;;;;;10266541;28;20117;-62
2022/12/30 19:59:10;;;;;;;11.90;8.93;;;;;;;;;;10271102;28;20087;-63
2022/12/30 20:04:11;;;;;;;19.40;13.05;;;;;;;;;;10265902;28;20064;-63
2022/12/30 20:09:10;;;;;;;21.70;15.05;;;;;;;;;;10271554;28;20414;-63
2022/12/30 20:14:11;;;;;;;23.40;16.65;;;;;;;;;;10271673;28;20485;-63
2022/12/30 20:19:14;;;;;;;20.42;13.60;;;;;;;;;;10269788;28;20080;-63
2022/12/30 20:24:13;;;;;;;20.60;14.27;;;;;;;;;;10270093;28;20065;-63
2022/12/30 20:29:12;;;;;;;25.50;16.60;;;;;;;;;;10267900;28;20137;-63
2022/12/30 20:34:12;;;;;;;25.73;16.20;;;;;;;;;;10270760;28;20541;-63
2022/12/30 20:39:12;;;;;;;35.78;21.10;;;;;;;;;;10270860;28;20091;-63
2022/12/30 20:44:11;;;;;;;40.60;25.10;;;;;;;;;;10270672;28;20130;-63
2022/12/30 20:49:09;;;;;;;66.60;37.67;;;;;;;;;;10270635;28;20076;-65
2022/12/30 20:54:09;;;;;;;28.20;19.67;;;;;;;;;;10269667;28;20037;-62
2022/12/30 20:59:08;;;;;;;18.02;13.00;;;;;;;;;;10267423;28;20164;-64
2022/12/30 21:04:07;;;;;;;13.70;10.60;;;;;;;;;;10264601;28;20464;-62
2022/12/30 21:09:06;;;;;;;12.85;9.48;;;;;;;;;;10268417;28;20358;-62
2022/12/30 21:14:06;;;;;;;12.23;9.40;;;;;;;;;;10258793;28;20068;-63
2022/12/30 21:19:04;;;;;;;13.77;10.50;;;;;;;;;;10269143;28;20073;-63
2022/12/30 21:24:02;;;;;;;14.57;9.90;;;;;;;;;;10273136;28;20413;-63
2022/12/30 21:29:02;;;;;;;15.98;10.88;;;;;;;;;;10273408;28;20052;-64
2022/12/30 21:34:02;;;;;;;11.52;7.65;;;;;;;;;;10273501;28;20033;-63
2022/12/30 22:05:43;;;;;;;7.82;6.30;;;;;;;;;;10270189;28;20071;-63
2022/12/30 22:10:42;;;;;;;7.93;6.40;;;;;;;;;;10266062;28;20367;-63
2022/12/30 22:15:41;;;;;;;9.65;7.75;;;;;;;;;;10271506;28;20061;-63
2022/12/30 22:20:39;;;;;;;10.23;8.02;;;;;;;;;;10271412;28;20073;-63
2022/12/30 22:25:40;;;;;;;9.02;8.13;;;;;;;;;;10277269;28;20407;-63
2022/12/30 22:30:38;;;;;;;9.30;7.50;;;;;;;;;;10279812;28;20041;-63
2022/12/30 22:35:37;;;;;;;7.43;6.70;;;;;;;;;;10280170;28;20069;-63
2022/12/30 22:40:37;;;;;;;12.35;9.35;;;;;;;;;;10278541;28;20084;-63
2022/12/30 22:45:36;;;;;;;13.95;9.07;;;;;;;;;;10272032;28;20426;-63
2022/12/30 22:50:36;;;;;;;9.20;7.90;;;;;;;;;;10278399;28;20458;-63
2022/12/30 22:55:36;;;;;;;8.07;7.13;;;;;;;;;;10277174;28;20056;-63
2022/12/30 23:00:34;;;;;;;7.40;6.70;;;;;;;;;;10279877;28;20053;-63
2022/12/30 23:05:34;;;;;;;9.15;7.35;;;;;;;;;;10278421;28;20049;-64
2022/12/30 23:10:32;;;;;;;12.30;10.43;;;;;;;;;;10278102;28;20087;-63
2022/12/30 23:20:44;;;;;;;8.88;7.38;;;;;;;;;;10261561;28;20053;-64
2022/12/30 23:25:42;;;;;;;6.75;5.82;;;;;;;;;;10278304;28;20079;-64
2022/12/30 23:30:41;;;;;;;8.25;7.45;;;;;;;;;;10278467;28;20128;-64
2022/12/30 23:35:39;;;;;;;8.43;6.93;;;;;;;;;;10276460;28;20049;-64
2022/12/30 23:40:41;;;;;;;12.88;8.95;;;;;;;;;;10278408;28;20047;-64
2022/12/30 23:45:42;;;;;;;16.95;8.88;;;;;;;;;;10277542;28;20461;-63
2022/12/30 23:50:40;;;;;;;10.65;8.32;;;;;;;;;;10248688;28;20060;-64
2022/12/30 23:55:39;;;;;;;8.27;7.28;;;;;;;;;;10276049;28;20074;-64
